WetterOnline ( http://www.wetteronline.de )

Wetter aktuell Berus

Aktuelles Wetter: Berus (367m)

6-stündlich | Neueste Meldungen
Ortszeit Temperatur Wetter
Mi, 23.01. 1:00 -3.1° C Schneefall
Di, 22.01. 19:00 -2.9° C bedeckt
Di, 22.01. 13:00 -3.6° C bedeckt
Di, 22.01. 7:00 -5.9° C bedeckt
Di, 22.01. 1:00 -5.6° C wolkenlos
Mo, 21.01. 19:00 -3.3° C wolkenlos
Mo, 21.01. 13:00 -4.7° C bewölkt
Mo, 21.01. 7:00 -6.0° C wolkenlos
Ortszeit Temperatur Wetter
Mi, 23.01. 1:30 -3.1° C bedeckt
Mi, 23.01. 1:20 -3.1° C bedeckt
Mi, 23.01. 1:10 -3.1° C bewölkt
Mi, 23.01. 1:00 -3.1° C Schneefall
Mi, 23.01. 0:40 -3.1° C Schneegriesel
Mi, 23.01. 0:30 -3.1° C leichter Schneefall
Mi, 23.01. 0:00 -3.1° C leichter Schneefall
Di, 22.01. 23:30 -3.1° C leichter Schneefall
Di, 22.01. 23:00 -3.1° C leichter Schneefall
Di, 22.01. 22:30 -3.0° C leichter Schneefall
Ortszeit Relative Feuchte Sichtweite
Mi, 23.01. 1:00 96% 7 km
Di, 22.01. 19:00 87% 13 km
Di, 22.01. 13:00 93% 10 km
Di, 22.01. 7:00 96% 1.7 km
Di, 22.01. 1:00 93% 5.0 km
Mo, 21.01. 19:00 83% 17 km
Mo, 21.01. 13:00 86% 12 km
Mo, 21.01. 7:00 90% 12 km
Ortszeit Relative Feuchte Sichtweite
Mi, 23.01. 1:30 96% 5.0 km
Mi, 23.01. 1:20 96% -
Mi, 23.01. 1:10 96% -
Mi, 23.01. 1:00 96% 7 km
Mi, 23.01. 0:40 96% -
Mi, 23.01. 0:30 95% 4.5 km
Mi, 23.01. 0:00 95% 6 km
Di, 22.01. 23:30 94% 6 km
Di, 22.01. 23:00 93% 6 km
Di, 22.01. 22:30 90% 5.0 km
Ortszeit Niederschlagsmenge Niederschlagsart
Mi, 23.01. 1:00 0.1 l/m2 in 6 Std. Schnee
Di, 22.01. 19:00 0.0 l/m2 in 12 Std. -
Di, 22.01. 13:00 0.0 l/m2 in 6 Std. -
Di, 22.01. 7:00 0.0 l/m2 in 12 Std. -
Di, 22.01. 1:00 0.0 l/m2 in 6 Std. -
Mo, 21.01. 19:00 0.0 l/m2 in 12 Std. -
Mo, 21.01. 13:00 0.0 l/m2 in 6 Std. -
Mo, 21.01. 7:00 0.0 l/m2 in 12 Std. -
Ortszeit Niederschlagsmenge Niederschlagsart
Mi, 23.01. 1:30 0.0 l/m2 in 1 Std. -
Mi, 23.01. 1:20 keine Meldung -
Mi, 23.01. 1:10 keine Meldung -
Mi, 23.01. 1:00 0.1 l/m2 in 1 Std. Schnee
Mi, 23.01. 0:40 keine Meldung -
Mi, 23.01. 0:30 0.1 l/m2 in 1 Std. -
Mi, 23.01. 0:00 0.1 l/m2 in 1 Std. Schnee
Di, 22.01. 23:30 0.1 l/m2 in 1 Std. -
Di, 22.01. 23:00 0.1 l/m2 in 1 Std. Schnee
Di, 22.01. 22:30 0.1 l/m2 in 1 Std. -
Ortszeit Stärke Spitze Richtung
km/h Bft. km/h Grad Sektor
Mi, 23.01. 1:00 7 2 18 160° S
Di, 22.01. 19:00 6 1 28 120° SO
Di, 22.01. 13:00 17 3 30 190° S
Di, 22.01. 7:00 15 3 19 200° S
Di, 22.01. 1:00 7 2 17 200° S
Mo, 21.01. 19:00 4 1 14 350° N
Mo, 21.01. 13:00 7 2 29 40° NO
Mo, 21.01. 7:00 22 4 29 40° NO
Ortszeit Stärke Spitze Richtung
km/h Bft. km/h Grad Sektor
Mi, 23.01. 1:30 7 2 11 170° S
Mi, 23.01. 1:20 7 2 - 170° S
Mi, 23.01. 1:10 7 2 - 160° S
Mi, 23.01. 1:00 7 2 14 160° S
Mi, 23.01. 0:40 7 2 - 160° S
Mi, 23.01. 0:30 9 2 15 170° S
Mi, 23.01. 0:00 9 2 13 170° S
Di, 22.01. 23:30 7 2 14 170° S
Di, 22.01. 23:00 11 2 14 190° S
Di, 22.01. 22:30 9 2 15 170° S
Ortszeit Untergrenze Bedeckung Gattung
total tief tief mittel hoch
Mi, 23.01. 1:00 150 m 7/8 7/8 - - -
Di, 22.01. 19:00 330 m 8/8 8/8 - - -
Di, 22.01. 13:00 240 m 8/8 8/8 - - -
Di, 22.01. 7:00 <30 m 8/8 0/8 - - -
Di, 22.01. 1:00 - 0/8 0/8 - - -
Mo, 21.01. 19:00 - 0/8 0/8 - - -
Mo, 21.01. 13:00 180 m 7/8 7/8 - - -
Mo, 21.01. 7:00 - 0/8 0/8 - - -
Ortszeit Bedeckungsgrad in Achtel und Wolkenuntergrenze
Mi, 23.01. 1:30 8(120m)
Mi, 23.01. 1:20 8(120m)
Mi, 23.01. 1:10 7(120m)
Mi, 23.01. 1:00 7(150m)
Mi, 23.01. 0:40 7(180m)
Mi, 23.01. 0:30 6(180m) 7(330m) 8(540m)
Mi, 23.01. 0:00 1(90m) 7(330m) 8(510m)
Di, 22.01. 23:30 3(450m) 8(600m)
Di, 22.01. 23:00 1(210m) 6(540m) 8(720m)
Di, 22.01. 22:30 1(480m) 7(720m)
Ortszeit Luftdruck NN (hPa) Tendenz (hPa in 3 Std.)
Mi, 23.01. 1:00 1002 - 1,9
Di, 22.01. 19:00 1006 - 1,4
Di, 22.01. 13:00 1011 - 2,5
Di, 22.01. 7:00 1016 - 2,1
Di, 22.01. 1:00 1020 - 1,5
Mo, 21.01. 19:00 1022 - 0,4
Mo, 21.01. 13:00 1024 + 0,3
Mo, 21.01. 7:00 1023 + 0,6
Ortszeit Luftdruck NN (hPa) Tendenz (hPa in 3 Std.)
Mi, 23.01. 1:30 1001 - 2,0
Mi, 23.01. 1:20 1001 keine Meldung
Mi, 23.01. 1:10 1002 keine Meldung
Mi, 23.01. 1:00 1002 - 1,9
Mi, 23.01. 0:40 1002 keine Meldung
Mi, 23.01. 0:30 1002 - 1,9
Mi, 23.01. 0:00 1002 - 2,1
Di, 22.01. 23:30 1003 - 1,9
Di, 22.01. 23:00 1003 - 1,9
Di, 22.01. 22:30 1003 - 1,8
Ortszeit Schneehöhe (cm)
Mi, 23.01. 1:00 0
Di, 22.01. 19:00 0
Di, 22.01. 13:00 0
Di, 22.01. 7:00 0
Di, 22.01. 1:00 0
Mo, 21.01. 19:00 0
Mo, 21.01. 13:00 0
Mo, 21.01. 7:00 0
Ortszeit Schneehöhe (cm)
Mi, 23.01. 1:30 0
Mi, 23.01. 1:20 0
Mi, 23.01. 1:10 0
Mi, 23.01. 1:00 0
Mi, 23.01. 0:40 0
Mi, 23.01. 0:30 0
Mi, 23.01. 0:00 0
Di, 22.01. 23:30 0
Di, 22.01. 23:00 0
Di, 22.01. 22:30 0
Link zu dieser Seite / Seite empfehlen

Das Wetter in ...